This is the latest recevied weather packets stored in our database for station/object DO6WO-10. If no packets are shown the sender has not sent any weather packets the latest 10 day(s).
| Time | Temp. | Humidity | Pressure | Rain* | Wind** | Luminosity | Snow |
|---|---|---|---|---|---|---|---|
| 1788135353 | 66° F | 48% | 767.2 mmHg | - | - | - | - |
| 1788132653 | 66° F | 48% | 767.2 mmHg | - | - | - | - |
| 1788129952 | 67° F | 46% | 767.4 mmHg | - | - | - | - |
| 1788127252 | 67° F | 47% | 767.6 mmHg | - | - | - | - |
| 1788124552 | 69° F | 45% | 767.6 mmHg | - | - | - | - |
| 1788121855 | 70° F | 44% | 767.7 mmHg | - | - | - | - |
| 1788119155 | 72° F | 42% | 767.6 mmHg | - | - | - | - |
| 1788116455 | 74° F | 41% | 767.7 mmHg | - | - | - | - |
| 1788113755 | 77° F | 38% | 767.2 mmHg | - | - | - | - |
| 1788111055 | 79° F | 37% | 767.2 mmHg | - | - | - | - |
| 1788108355 | 81° F | 36% | 767.1 mmHg | - | - | - | - |
| 1788105655 | 81° F | 36% | 767.2 mmHg | - | - | - | - |
| 1788102955 | 84° F | 35% | 767.2 mmHg | - | - | - | - |
| 1788100255 | 85° F | 35% | 767.2 mmHg | - | - | - | - |
| 1788097555 | 90° F | 33% | 767.2 mmHg | - | - | - | - |
| 1788094855 | 85° F | 36% | 767.6 mmHg | - | - | - | - |
| 1788092155 | 84° F | 36% | 767.8 mmHg | - | - | - | - |
| 1788089455 | 83° F | 37% | 768.1 mmHg | - | - | - | - |
| 1788086754 | 80° F | 39% | 768.4 mmHg | - | - | - | - |
| 1788084054 | 78° F | 41% | 768.7 mmHg | - | - | - | - |
| 1788081353 | 77° F | 42% | 768.8 mmHg | - | - | - | - |
| 1788078654 | 73° F | 44% | 769 mmHg | - | - | - | - |
| 1788075953 | 71° F | 45% | 769.3 mmHg | - | - | - | - |
| 1788073253 | 67° F | 48% | 769.3 mmHg | - | - | - | - |
| 1788070553 | 64° F | 50% | 769.5 mmHg | - | - | - | - |
* Rain since midnight (hover to see other rain measurements)
** Current wind speed in m/s (hover to see current wind gust speed)